Time;durP1;ratioP1;P1;durP2;ratioP2;P2;SDS_P1;SDS_P2;PMS_P1;PMS_P2;Temp;Humidity;BMP_temperature;BMP_pressure;BME280_temperature;BME280_humidity;BME280_pressure;Samples;Min_cycle;Max_cycle;Signal;HPM_P1;HPM_P2
2023/06/22 00:00:08;;;;;;;1.88;1.00;;;;;;;27.34;43.24;102062.06;5040766;28;20403;-32
2023/06/22 00:02:35;;;;;;;1.03;0.90;;;;;;;27.36;43.37;102061.88;5036200;28;20049;-31
2023/06/22 00:05:02;;;;;;;0.80;0.80;;;;;;;27.33;43.17;102057.63;5034801;28;20124;-31
2023/06/22 00:07:28;;;;;;;1.13;1.00;;;;;;;27.34;43.44;102062.06;5036059;28;20104;-32
2023/06/22 00:09:55;;;;;;;1.35;1.05;;;;;;;27.33;43.96;102060.34;5042908;28;20089;-31
2023/06/22 00:12:21;;;;;;;1.63;1.08;;;;;;;27.32;43.39;102064.13;5045232;28;20102;-31
2023/06/22 00:14:48;;;;;;;0.80;0.73;;;;;;;27.31;43.21;102066.00;5044104;28;20130;-30
2023/06/22 00:17:14;;;;;;;2.60;0.95;;;;;;;27.31;43.24;102068.72;5045327;28;20072;-31
2023/06/22 00:19:41;;;;;;;1.40;1.23;;;;;;;27.30;43.63;102064.31;5045708;28;20041;-30
2023/06/22 00:22:07;;;;;;;5.82;1.70;;;;;;;27.29;43.17;102062.59;5046620;28;20056;-31
2023/06/22 00:24:34;;;;;;;1.10;1.00;;;;;;;27.29;43.20;102056.31;5044845;28;20049;-31
2023/06/22 00:27:01;;;;;;;1.75;1.35;;;;;;;27.28;43.51;102058.19;5047059;28;20128;-31
2023/06/22 00:29:27;;;;;;;0.98;0.88;;;;;;;27.28;43.56;102060.06;5046716;28;20058;-30
2023/06/22 00:31:54;;;;;;;1.48;1.00;;;;;;;27.26;43.16;102052.13;5047174;28;20048;-30
2023/06/22 00:34:20;;;;;;;0.88;0.85;;;;;;;27.25;43.71;102050.41;5045716;28;20127;-32
2023/06/22 00:36:47;;;;;;;1.48;1.17;;;;;;;27.25;43.73;102053.13;5046807;28;20048;-31
2023/06/22 00:39:13;;;;;;;1.00;0.90;;;;;;;27.24;43.22;102045.16;5063716;28;20100;-30
2023/06/22 00:41:40;;;;;;;1.08;0.98;;;;;;;27.23;43.65;102040.75;5042945;28;20507;-31
2023/06/22 00:44:08;;;;;;;1.48;1.30;;;;;;;27.23;43.54;102035.31;5041528;28;20046;-31
2023/06/22 00:46:35;;;;;;;1.13;1.02;;;;;;;27.22;43.35;102028.16;5043516;28;20053;-30
2023/06/22 00:49:03;;;;;;;1.45;1.20;;;;;;;27.20;43.75;102031.06;5042811;28;20632;-31
2023/06/22 00:51:30;;;;;;;1.15;1.00;;;;;;;27.20;43.32;102036.50;5041917;28;20478;-30
2023/06/22 00:53:57;;;;;;;1.58;1.20;;;;;;;27.19;43.72;102034.81;5043558;28;20061;-30
2023/06/22 00:56:24;;;;;;;1.63;1.08;;;;;;;27.19;43.30;102028.53;5040714;28;20394;-31
2023/06/22 00:58:52;;;;;;;1.33;1.10;;;;;;;27.19;43.34;102028.53;5037472;28;20049;-31
2023/06/22 01:01:23;;;;;;;1.10;0.90;;;;;;;27.18;43.69;102024.13;5040921;28;20061;-32
2023/06/22 01:03:50;;;;;;;1.45;1.00;;;;;;;27.16;43.76;102032.47;5034475;28;20077;-31
2023/06/22 01:06:26;;;;;;;1.27;1.13;;;;;;;27.15;43.85;102030.78;5035967;28;20053;-31
2023/06/22 01:09:19;;;;;;;1.38;1.20;;;;;;;27.13;43.88;102026.53;5035103;28;20099;-30
2023/06/22 01:11:54;;;;;;;1.20;0.95;;;;;;;27.15;43.63;102027.22;5038204;28;20057;-30
2023/06/22 01:14:27;;;;;;;1.17;1.08;;;;;;;27.12;43.91;102025.69;5034305;28;20042;-31
2023/06/22 01:16:56;;;;;;;1.37;1.00;;;;;;;27.12;43.75;102022.97;5038621;28;20079;-30
2023/06/22 01:19:56;;;;;;;1.38;1.10;;;;;;;27.08;43.63;102030.63;5033224;28;20457;-30
2023/06/22 01:22:28;;;;;;;1.17;1.08;;;;;;;27.11;43.84;102023.19;5034795;28;20057;-30
2023/06/22 01:25:04;;;;;;;1.13;1.02;;;;;;;27.09;43.60;102020.59;5034849;28;20048;-30
2023/06/22 01:27:52;;;;;;;1.20;1.10;;;;;;;27.06;44.02;102024.53;5032765;28;20149;-30
2023/06/22 01:30:19;;;;;;;1.77;0.95;;;;;;;27.06;44.14;102021.81;5036908;28;20079;-30
2023/06/22 01:32:47;;;;;;;1.73;1.20;;;;;;;27.06;43.71;102019.09;5035727;28;20514;-30
2023/06/22 01:35:15;;;;;;;1.33;1.13;;;;;;;27.05;43.95;102022.00;5030566;28;20453;-31
2023/06/22 01:37:41;;;;;;;1.25;1.13;;;;;;;27.05;43.91;102028.28;5063253;28;20089;-31
2023/06/22 01:40:09;;;;;;;1.27;1.15;;;;;;;27.03;44.14;102024.91;5039147;28;20317;-31
2023/06/22 01:42:37;;;;;;;1.80;1.00;;;;;;;27.02;44.03;102027.84;5039466;28;20048;-31
2023/06/22 01:45:05;;;;;;;1.33;1.15;;;;;;;27.01;43.88;102029.69;5038391;28;20136;-30
2023/06/22 01:47:32;;;;;;;1.25;0.95;;;;;;;27.01;43.65;102018.78;5040520;28;20509;-33
2023/06/22 01:49:59;;;;;;;1.63;1.08;;;;;;;26.99;43.92;102012.69;5038949;28;20132;-31
2023/06/22 01:52:25;;;;;;;1.48;1.10;;;;;;;26.99;43.68;102015.44;5038315;28;20053;-31
2023/06/22 01:54:53;;;;;;;1.35;1.10;;;;;;;26.97;43.66;102028.34;5071220;28;20107;-30
2023/06/22 01:57:20;;;;;;;1.23;1.13;;;;;;;26.97;43.88;102020.19;5040396;28;20140;-31
2023/06/22 01:59:56;;;;;;;2.00;1.35;;;;;;;26.95;43.86;102016.81;5042170;28;20063;-30
2023/06/22 02:02:29;;;;;;;1.35;1.20;;;;;;;26.96;44.22;102020.38;5040941;28;20886;-30
2023/06/22 02:04:59;;;;;;;;;;;;;;;26.94;43.75;102011.59;5042138;28;20103;-31
2023/06/22 02:07:32;;;;;;;2.08;1.38;;;;;;;26.96;43.66;102007.63;5038189;28;19924;-31
2023/06/22 02:10:00;;;;;;;2.10;1.20;;;;;;;26.95;43.97;102015.97;5038176;28;20397;-31
2023/06/22 02:12:30;;;;;;;1.50;1.40;;;;;;;26.93;44.28;102018.03;5041961;28;20388;-31
2023/06/22 02:14:57;;;;;;;2.03;1.00;;;;;;;26.92;44.04;102010.91;5041487;28;20452;-31
2023/06/22 02:17:26;;;;;;;1.63;1.20;;;;;;;26.92;43.86;102019.06;5040824;28;20096;-30
2023/06/22 02:19:53;;;;;;;1.33;1.10;;;;;;;26.90;43.85;102016.53;5040212;28;20049;-30
2023/06/22 02:22:19;;;;;;;1.30;1.20;;;;;;;26.89;44.02;102009.38;5037012;28;20425;-31
2023/06/22 02:24:46;;;;;;;1.63;1.20;;;;;;;26.87;44.06;102006.03;5040947;28;20476;-31
2023/06/22 02:27:13;;;;;;;1.75;1.33;;;;;;;26.88;44.32;102004.97;5038624;28;20109;-31
2023/06/22 02:29:39;;;;;;;2.35;1.30;;;;;;;26.87;43.96;102007.91;5037901;28;20053;-31
2023/06/22 02:32:06;;;;;;;1.20;1.05;;;;;;;26.86;44.08;102007.06;5038675;28;20131;-31
2023/06/22 02:34:33;;;;;;;2.20;1.20;;;;;;;26.86;44.29;102001.63;5036295;28;20111;-31
2023/06/22 02:37:00;;;;;;;1.85;1.52;;;;;;;26.86;44.10;102007.06;5036260;28;20079;-30
2023/06/22 02:39:27;;;;;;;1.35;1.25;;;;;;;26.85;44.04;102004.50;5035645;28;20048;-31
2023/06/22 02:41:54;;;;;;;1.60;1.10;;;;;;;26.84;44.27;102003.66;5037200;28;20080;-30
2023/06/22 02:44:21;;;;;;;1.42;1.15;;;;;;;26.83;44.16;101991.09;5034616;28;20049;-31
2023/06/22 02:46:48;;;;;;;1.00;0.82;;;;;;;26.82;43.93;101998.41;5037773;28;20041;-30
2023/06/22 02:49:15;;;;;;;1.42;1.23;;;;;;;26.82;44.36;102000.28;5035989;28;20494;-30
2023/06/22 02:51:45;;;;;;;1.80;1.40;;;;;;;26.82;44.19;102001.13;5036170;28;20041;-30
2023/06/22 02:54:11;;;;;;;1.77;1.05;;;;;;;26.81;44.11;102004.91;5042169;28;20050;-31
2023/06/22 02:56:40;;;;;;;2.03;1.42;;;;;;;26.80;44.12;102003.19;5041941;28;20045;-30
2023/06/22 02:59:07;;;;;;;1.15;1.05;;;;;;;26.79;44.21;102008.81;5040280;28;20080;-30
2023/06/22 03:01:39;;;;;;;1.65;1.30;;;;;;;26.79;44.30;102009.66;5041593;28;20120;-30
2023/06/22 03:04:07;;;;;;;1.20;1.10;;;;;;;26.78;44.05;102005.25;5038109;28;20076;-31
2023/06/22 03:06:34;;;;;;;1.70;1.40;;;;;;;26.77;44.43;102000.81;5038543;28;20033;-31
2023/06/22 03:09:04;;;;;;;1.63;1.38;;;;;;;26.76;44.26;102001.00;5039669;28;20045;-30
2023/06/22 03:11:32;;;;;;;1.30;1.10;;;;;;;26.76;44.27;101999.13;5035793;28;20341;-32
2023/06/22 03:13:59;;;;;;;1.30;1.20;;;;;;;26.75;44.28;102002.06;5038967;28;20425;-30
2023/06/22 03:16:26;;;;;;;1.58;1.23;;;;;;;26.74;44.21;102006.66;5039783;28;20073;-31
2023/06/22 03:18:56;;;;;;;2.75;1.40;;;;;;;26.74;43.99;102012.09;5039622;28;20136;-32
2023/06/22 03:21:23;;;;;;;1.92;1.52;;;;;;;26.74;44.17;102005.81;5039280;28;20045;-31
2023/06/22 03:23:50;;;;;;;1.65;1.33;;;;;;;26.73;44.30;101995.94;5042024;28;20132;-30
2023/06/22 03:26:17;;;;;;;1.85;1.25;;;;;;;26.72;44.12;101995.09;5043398;28;20475;-30
2023/06/22 03:28:44;;;;;;;1.65;1.30;;;;;;;26.72;44.04;101978.78;5037987;28;20084;-31
2023/06/22 03:31:10;;;;;;;1.58;1.17;;;;;;;26.72;44.26;101983.38;5039508;28;20044;-31
2023/06/22 03:33:37;;;;;;;1.65;1.55;;;;;;;26.71;44.27;101987.97;5035520;28;20056;-30
2023/06/22 03:36:04;;;;;;;1.90;1.23;;;;;;;26.70;44.33;101977.28;5033154;28;20323;-31
2023/06/22 03:38:31;;;;;;;1.48;1.08;;;;;;;26.70;44.27;101983.56;5039833;28;20049;-31
2023/06/22 03:40:57;;;;;;;1.40;1.27;;;;;;;26.70;44.13;101982.72;5039714;28;20053;-30
2023/06/22 03:43:24;;;;;;;1.65;1.27;;;;;;;26.69;44.46;101976.41;5040143;28;20085;-31
2023/06/22 03:45:51;;;;;;;1.80;1.55;;;;;;;26.69;44.35;101972.84;5039807;28;20073;-30
2023/06/22 03:48:17;;;;;;;2.45;1.60;;;;;;;26.68;44.20;101982.06;5041483;28;20044;-30
2023/06/22 03:50:44;;;;;;;1.50;1.10;;;;;;;26.68;44.24;101984.78;5041105;28;20072;-32
2023/06/22 03:53:11;;;;;;;1.40;1.20;;;;;;;26.66;44.35;101979.53;5040328;28;20045;-31
2023/06/22 03:55:40;;;;;;;1.77;1.40;;;;;;;26.66;44.25;101968.66;5040139;28;20081;-31
2023/06/22 03:58:07;;;;;;;2.42;1.50;;;;;;;26.66;44.32;101970.53;5039565;28;20081;-30
2023/06/22 04:00:33;;;;;;;1.17;1.05;;;;;;;26.66;44.19;101975.97;5041416;28;20107;-31
2023/06/22 04:03:00;;;;;;;1.27;1.17;;;;;;;26.65;44.12;101979.69;5040068;28;20384;-31
2023/06/22 04:05:27;;;;;;;1.65;1.33;;;;;;;26.65;44.46;101982.41;5068000;28;20059;-30
2023/06/22 04:07:53;;;;;;;1.92;1.48;;;;;;;26.64;44.14;101976.13;5039193;28;20406;-31
2023/06/22 04:10:20;;;;;;;1.60;1.40;;;;;;;26.63;44.24;101977.16;5037173;28;20140;-31
2023/06/22 04:12:47;;;;;;;1.73;1.50;;;;;;;26.63;44.35;101963.56;5040566;28;20140;-31
2023/06/22 04:15:13;;;;;;;2.83;1.30;;;;;;;26.63;44.40;101968.16;5037969;28;20053;-30
2023/06/22 04:17:40;;;;;;;1.85;1.35;;;;;;;26.63;44.40;101958.13;5039122;28;20115;-30
2023/06/22 04:20:08;;;;;;;1.15;1.05;;;;;;;26.62;44.19;101961.03;5034811;28;20449;-30
2023/06/22 04:22:35;;;;;;;1.20;1.10;;;;;;;26.63;44.28;101960.00;5037364;28;20521;-30
2023/06/22 04:25:01;;;;;;;2.10;1.42;;;;;;;26.63;44.23;101957.28;5041619;28;20417;-31
2023/06/22 04:27:28;;;;;;;1.98;1.25;;;;;;;26.62;44.31;101956.44;5035286;28;20046;-30
2023/06/22 04:29:54;;;;;;;1.58;1.30;;;;;;;26.62;44.39;101959.16;5047141;28;20483;-30
2023/06/22 04:32:21;;;;;;;1.65;1.38;;;;;;;26.62;44.03;101961.88;5048673;28;20111;-31
2023/06/22 04:34:48;;;;;;;2.22;1.42;;;;;;;26.63;44.29;101969.00;5048052;28;20057;-31
2023/06/22 04:37:15;;;;;;;1.33;1.10;;;;;;;26.63;44.37;101962.72;5043117;28;20176;-30
2023/06/22 04:39:43;;;;;;;1.20;1.10;;;;;;;26.63;44.28;101969.00;5049241;28;20053;-30
2023/06/22 04:42:09;;;;;;;1.50;1.30;;;;;;;26.63;44.35;101966.28;5048410;28;20393;-31
2023/06/22 04:44:36;;;;;;;1.10;1.00;;;;;;;26.64;44.16;101961.69;5047593;28;20148;-31
2023/06/22 04:47:03;;;;;;;1.85;1.40;;;;;;;26.65;44.04;101968.81;5047165;28;20148;-30
2023/06/22 04:49:34;;;;;;;1.60;1.50;;;;;;;26.66;44.34;101973.25;5043241;28;20503;-31
2023/06/22 04:52:02;;;;;;;1.33;1.10;;;;;;;26.66;44.46;101965.94;5044187;28;20108;-31
2023/06/22 04:54:29;;;;;;;1.88;1.10;;;;;;;26.67;44.18;101980.38;5045661;28;20075;-31
2023/06/22 04:56:59;;;;;;;1.42;1.20;;;;;;;26.68;44.07;101984.78;5040009;28;20041;-30
2023/06/22 04:59:30;;;;;;;1.40;1.23;;;;;;;26.69;44.34;101983.72;5033737;28;20050;-30
2023/06/22 05:01:58;;;;;;;1.65;1.30;;;;;;;26.70;44.22;101980.00;5037509;28;20353;-32
2023/06/22 05:04:27;;;;;;;1.38;1.17;;;;;;;26.72;44.05;101975.22;5035890;28;20136;-31
2023/06/22 05:06:54;;;;;;;1.30;1.15;;;;;;;26.72;44.39;101976.06;5033242;28;20132;-30
2023/06/22 05:09:22;;;;;;;1.70;1.00;;;;;;;26.74;43.90;101974.00;5041627;28;20073;-30
2023/06/22 05:11:48;;;;;;;1.20;1.10;;;;;;;26.73;44.41;101964.13;5033573;28;20075;-30
2023/06/22 05:14:15;;;;;;;1.20;1.10;;;;;;;26.75;44.09;101959.38;5038130;28;20654;-31
2023/06/22 05:16:42;;;;;;;2.00;1.25;;;;;;;26.76;44.22;101963.78;5034035;28;20372;-31
2023/06/22 05:19:09;;;;;;;1.00;0.90;;;;;;;26.77;44.15;101964.63;5037273;28;20056;-30
2023/06/22 05:21:36;;;;;;;1.60;1.13;;;;;;;26.77;43.88;101968.19;5035501;28;20075;-31
2023/06/22 05:24:03;;;;;;;1.27;1.08;;;;;;;26.79;43.68;101971.56;5070395;28;20053;-30
2023/06/22 05:26:30;;;;;;;1.35;1.20;;;;;;;26.81;44.32;101972.25;5041014;28;20049;-30
2023/06/22 05:28:57;;;;;;;1.67;1.30;;;;;;;26.82;43.79;101964.94;5036000;28;20064;-31
2023/06/22 05:31:24;;;;;;;1.40;1.10;;;;;;;26.83;44.16;101970.19;5036636;28;20433;-30
2023/06/22 05:33:52;;;;;;;1.30;1.08;;;;;;;26.84;44.06;101968.28;5039548;28;20045;-31
2023/06/22 05:36:21;;;;;;;1.27;1.15;;;;;;;26.87;44.13;101972.53;5036454;28;20094;-30
2023/06/22 05:38:47;;;;;;;1.05;0.93;;;;;;;26.88;43.90;101969.63;5035977;28;20437;-31
2023/06/22 05:41:14;;;;;;;1.20;1.10;;;;;;;26.90;43.71;101974.91;5033241;28;20445;-31
2023/06/22 05:43:40;;;;;;;1.20;1.10;;;;;;;26.91;43.77;101973.84;5037882;28;20065;-31
2023/06/22 05:46:07;;;;;;;1.38;1.13;;;;;;;26.94;43.60;101976.22;5030573;28;20073;-30
2023/06/22 05:48:34;;;;;;;1.25;0.90;;;;;;;26.95;43.82;101976.00;5036170;28;20076;-30
2023/06/22 05:51:00;;;;;;;1.55;1.20;;;;;;;26.96;43.74;101980.41;5032517;28;20059;-30
2023/06/22 05:53:27;;;;;;;1.27;1.10;;;;;;;26.98;43.57;101983.81;5041249;28;20076;-30
2023/06/22 05:55:53;;;;;;;1.20;1.10;;;;;;;27.00;43.67;101975.44;5040042;28;20486;-31
2023/06/22 05:58:20;;;;;;;1.15;1.00;;;;;;;27.01;43.56;101974.41;5040664;28;20057;-31
2023/06/22 06:00:47;;;;;;;1.42;1.00;;;;;;;27.01;43.64;101986.13;5044462;28;20412;-31
2023/06/22 06:03:16;;;;;;;1.60;1.20;;;;;;;27.01;43.32;101988.84;5041190;28;20056;-31
2023/06/22 06:05:44;;;;;;;1.00;0.90;;;;;;;27.01;43.55;101979.84;5041620;28;20479;-31
2023/06/22 06:08:12;;;;;;;1.63;1.00;;;;;;;27.01;43.58;101979.84;5041805;28;20315;-31
2023/06/22 06:10:39;;;;;;;2.10;1.05;;;;;;;27.01;43.50;101972.53;5042209;28;20075;-31
2023/06/22 06:13:06;;;;;;;1.27;0.90;;;;;;;27.02;43.63;101976.97;5042734;28;20441;-31
2023/06/22 06:15:33;;;;;;;2.33;1.30;;;;;;;27.02;43.48;101968.81;5043031;28;20507;-31
2023/06/22 06:18:01;;;;;;;1.20;0.98;;;;;;;27.03;43.75;101966.91;5043079;28;20088;-31
2023/06/22 06:20:28;;;;;;;1.27;1.15;;;;;;;27.02;43.53;101966.06;5075426;28;20045;-31
2023/06/22 06:22:56;;;;;;;1.10;1.00;;;;;;;27.03;43.91;101961.47;5037705;28;20053;-31
2023/06/22 06:25:22;;;;;;;1.42;1.20;;;;;;;27.02;43.74;101963.34;5044503;28;20057;-30
2023/06/22 06:27:53;;;;;;;2.30;1.40;;;;;;;27.02;43.77;101966.06;5042646;28;20056;-31
2023/06/22 06:30:19;;;;;;;1.45;1.20;;;;;;;27.03;43.75;101958.75;5044809;28;20385;-31
2023/06/22 06:32:46;;;;;;;1.10;1.00;;;;;;;27.03;43.72;101959.59;5043730;28;20045;-31
2023/06/22 06:35:15;;;;;;;2.15;1.30;;;;;;;27.04;43.56;101961.28;5044088;28;20391;-31
2023/06/22 06:37:44;;;;;;;1.58;1.20;;;;;;;27.03;43.26;101956.88;5044649;28;20132;-31
2023/06/22 06:40:12;;;;;;;1.48;1.27;;;;;;;27.03;43.44;101958.75;5042891;28;20045;-31
2023/06/22 06:42:45;;;;;;;1.27;1.00;;;;;;;27.04;43.54;101950.41;5043001;28;20135;-31
2023/06/22 06:45:13;;;;;;;1.67;1.20;;;;;;;27.04;43.50;101950.41;5043342;28;20053;-31
2023/06/22 06:47:39;;;;;;;1.50;1.30;;;;;;;27.05;43.45;101941.19;5041479;28;20077;-31
2023/06/22 06:50:07;;;;;;;2.38;1.00;;;;;;;27.06;43.60;101942.06;5045631;28;20049;-31
2023/06/22 06:52:34;;;;;;;1.58;1.27;;;;;;;27.07;43.46;101943.75;5042185;28;20448;-31
2023/06/22 06:55:25;;;;;;;1.42;1.33;;;;;;;27.07;43.17;101941.03;5043782;28;20049;-31
2023/06/22 06:57:52;;;;;;;1.48;1.30;;;;;;;27.08;43.58;101935.38;5039104;28;20076;-31
2023/06/22 07:00:19;;;;;;;2.97;1.40;;;;;;;27.09;43.40;101941.66;5037158;28;20057;-31
2023/06/22 07:02:48;;;;;;;1.70;1.30;;;;;;;27.11;43.23;101936.09;5036112;28;20052;-31
2023/06/22 07:05:15;;;;;;;1.23;1.13;;;;;;;27.12;43.15;101945.94;5042696;28;20063;-32
2023/06/22 07:07:42;;;;;;;1.80;1.10;;;;;;;27.12;43.50;101949.50;5036412;28;20045;-31
2023/06/22 07:10:09;;;;;;;1.70;1.20;;;;;;;27.13;43.55;101942.16;5041302;28;20096;-31
2023/06/22 07:12:36;;;;;;;1.63;1.30;;;;;;;27.13;43.24;101943.00;5036524;28;20360;-32
2023/06/22 07:15:08;;;;;;;2.15;1.30;;;;;;;27.14;43.18;101941.16;5034223;28;20132;-31
2023/06/22 07:17:36;;;;;;;1.85;1.17;;;;;;;27.15;43.45;101937.41;5034451;28;20481;-31
2023/06/22 07:20:09;;;;;;;1.65;1.33;;;;;;;27.15;42.99;101940.97;5042425;28;20052;-31
2023/06/22 07:22:37;;;;;;;1.50;1.08;;;;;;;27.15;43.38;101930.06;5039098;28;20364;-31
2023/06/22 07:25:08;;;;;;;1.40;1.30;;;;;;;27.16;43.62;101925.47;5045484;28;20401;-31
2023/06/22 07:27:42;;;;;;;1.85;1.30;;;;;;;27.15;43.52;101930.06;5039862;28;20417;-31
2023/06/22 07:30:10;;;;;;;2.38;1.40;;;;;;;27.16;43.41;101931.75;5043807;28;20095;-31
2023/06/22 07:32:37;;;;;;;2.45;1.50;;;;;;;27.19;43.24;101930.53;5039431;28;20082;-31
2023/06/22 07:35:04;;;;;;;2.13;1.70;;;;;;;27.18;43.02;101928.88;5040646;28;20610;-31
2023/06/22 07:37:33;;;;;;;1.67;1.50;;;;;;;27.19;43.24;101925.09;5039947;28;20092;-31
2023/06/22 07:39:59;;;;;;;1.30;1.17;;;;;;;27.19;43.67;101925.09;5040165;28;20049;-31
2023/06/22 07:42:26;;;;;;;1.40;1.23;;;;;;;27.19;43.30;101916.94;5037212;28;20049;-31
2023/06/22 07:44:54;;;;;;;1.42;1.30;;;;;;;27.21;42.97;101920.28;5041067;28;20045;-31
2023/06/22 07:47:25;;;;;;;1.20;1.10;;;;;;;27.21;42.93;101923.84;5040378;28;20127;-31
2023/06/22 07:49:54;;;;;;;1.70;1.17;;;;;;;27.22;43.36;101920.13;5037484;28;20064;-32
2023/06/22 07:52:21;;;;;;;2.05;1.25;;;;;;;27.23;43.07;101916.38;5041516;28;20405;-31
2023/06/22 07:54:48;;;;;;;1.40;1.25;;;;;;;27.23;43.42;101910.09;5042653;28;20091;-31
2023/06/22 07:57:14;;;;;;;1.67;1.27;;;;;;;27.23;43.56;101905.47;5042954;28;20045;-32
2023/06/22 07:59:41;;;;;;;1.98;1.42;;;;;;;27.23;42.91;101905.47;5042549;28;20079;-31
2023/06/22 08:02:09;;;;;;;2.33;1.17;;;;;;;27.25;42.93;101908.00;5041093;28;20060;-32
2023/06/22 08:04:36;;;;;;;1.80;1.42;;;;;;;27.26;43.49;101906.97;5037274;28;20053;-31
2023/06/22 08:07:03;;;;;;;1.45;1.25;;;;;;;27.26;43.38;101887.94;5040152;28;20118;-31
2023/06/22 08:09:32;;;;;;;2.08;1.52;;;;;;;27.26;43.42;101891.50;5038009;28;20444;-31
2023/06/22 08:11:59;;;;;;;1.55;1.13;;;;;;;27.27;43.22;101889.59;5032639;28;20057;-31
2023/06/22 08:14:27;;;;;;;1.85;1.30;;;;;;;27.28;43.24;101896.75;5036601;28;20057;-31
2023/06/22 08:16:54;;;;;;;1.25;1.15;;;;;;;27.28;43.14;101885.84;5039162;28;20112;-31
2023/06/22 08:19:20;;;;;;;1.55;1.45;;;;;;;27.29;42.92;101891.09;5039035;28;20057;-31
2023/06/22 08:21:47;;;;;;;1.60;1.50;;;;;;;27.29;42.99;101880.19;5037735;28;20045;-31
2023/06/22 08:24:14;;;;;;;2.70;1.20;;;;;;;27.31;43.59;101877.31;5038906;28;20106;-31
2023/06/22 08:26:40;;;;;;;1.73;1.40;;;;;;;27.31;43.34;101869.97;5042490;28;20041;-31
2023/06/22 08:29:07;;;;;;;1.95;1.50;;;;;;;27.33;43.00;101877.09;5040605;28;20065;-31
2023/06/22 08:31:34;;;;;;;1.92;1.73;;;;;;;27.33;42.97;101871.66;5037114;28;20049;-31
2023/06/22 08:34:01;;;;;;;1.77;1.40;;;;;;;27.34;43.46;101866.03;5037037;28;20140;-31
2023/06/22 08:36:35;;;;;;;1.48;1.33;;;;;;;27.34;43.08;101866.03;5038033;28;20052;-31
2023/06/22 08:39:02;;;;;;;1.60;1.40;;;;;;;27.35;43.26;101870.44;5033573;28;20054;-31
2023/06/22 08:41:29;;;;;;;1.50;1.23;;;;;;;27.36;42.98;101863.97;5036095;28;20054;-31
2023/06/22 08:43:57;;;;;;;1.95;1.10;;;;;;;27.36;43.05;101855.78;5044674;28;20103;-31
2023/06/22 08:46:29;;;;;;;1.52;1.33;;;;;;;27.37;43.59;101856.63;5047119;28;20071;-31
2023/06/22 08:48:57;;;;;;;1.45;1.33;;;;;;;27.37;42.87;101854.75;5049884;28;20351;-31
2023/06/22 08:51:24;;;;;;;2.30;1.45;;;;;;;27.39;43.45;101843.69;5049910;28;20057;-32
2023/06/22 08:53:51;;;;;;;1.00;0.90;;;;;;;27.39;43.41;101849.97;5046960;28;20108;-31
2023/06/22 08:56:18;;;;;;;1.08;1.02;;;;;;;27.40;43.10;101850.81;5037174;28;20053;-31
2023/06/22 08:58:44;;;;;;;1.70;1.27;;;;;;;27.41;43.18;101853.31;5035847;28;20096;-31
2023/06/22 09:01:11;;;;;;;2.65;1.50;;;;;;;27.42;43.18;101849.59;5036644;28;20344;-31
2023/06/22 09:03:37;;;;;;;1.23;1.13;;;;;;;27.44;42.70;101852.94;5035639;28;20114;-31
2023/06/22 09:06:04;;;;;;;1.92;1.00;;;;;;;27.43;42.97;101851.28;5034976;28;20473;-31
2023/06/22 09:08:31;;;;;;;1.42;1.13;;;;;;;27.44;43.37;101852.09;5034116;28;20209;-32
2023/06/22 09:10:58;;;;;;;1.30;1.20;;;;;;;27.45;43.31;101854.63;5037110;28;20057;-31
2023/06/22 09:13:25;;;;;;;1.45;1.30;;;;;;;27.45;42.76;101851.91;5034743;28;20108;-31
2023/06/22 09:15:52;;;;;;;1.33;1.00;;;;;;;27.46;42.90;101848.16;5035607;28;20049;-31
2023/06/22 09:18:18;;;;;;;1.52;1.00;;;;;;;27.47;42.85;101843.56;5037014;28;20057;-31
2023/06/22 09:20:45;;;;;;;1.27;1.17;;;;;;;27.47;43.29;101838.97;5030809;28;20053;-31
2023/06/22 09:23:12;;;;;;;1.52;1.30;;;;;;;27.48;43.33;101843.34;5036855;28;20049;-31
2023/06/22 09:25:40;;;;;;;1.40;1.30;;;;;;;27.48;42.90;101835.19;5041146;28;20056;-31
2023/06/22 09:28:06;;;;;;;1.35;1.08;;;;;;;27.49;42.92;101839.59;5037538;28;20049;-31
2023/06/22 09:30:33;;;;;;;1.65;1.20;;;;;;;27.49;43.17;101834.16;5034650;28;20099;-32
2023/06/22 09:33:01;;;;;;;1.40;1.15;;;;;;;27.50;43.00;101845.91;5035909;28;20056;-31
2023/06/22 09:35:27;;;;;;;1.35;1.10;;;;;;;27.50;43.04;101835.03;5037710;28;20127;-32
2023/06/22 09:37:54;;;;;;;2.13;1.20;;;;;;;27.50;43.30;101838.56;5035403;28;20425;-31
2023/06/22 09:40:22;;;;;;;1.83;1.33;;;;;;;27.51;43.23;101840.25;5038274;28;20103;-31
2023/06/22 09:42:48;;;;;;;2.15;1.30;;;;;;;27.52;43.06;101843.81;5039634;28;20057;-31
2023/06/22 09:45:15;;;;;;;2.53;1.40;;;;;;;27.52;43.23;101844.66;5035816;28;20084;-31
2023/06/22 09:47:42;;;;;;;1.75;1.50;;;;;;;27.53;43.44;101840.06;5035877;28;20135;-31
2023/06/22 09:50:09;;;;;;;1.10;1.00;;;;;;;27.54;42.64;101839.03;5036290;28;20472;-31
2023/06/22 09:52:36;;;;;;;1.67;1.33;;;;;;;27.54;42.89;101837.16;5035003;28;20052;-32
2023/06/22 09:55:06;;;;;;;1.45;1.20;;;;;;;27.54;43.20;101831.72;5041595;28;20077;-31
2023/06/22 09:57:32;;;;;;;1.52;1.42;;;;;;;27.55;42.96;101830.66;5035100;28;20053;-31
2023/06/22 09:59:59;;;;;;;1.10;1.00;;;;;;;27.55;42.88;101836.13;5035167;28;20455;-31
2023/06/22 10:02:26;;;;;;;1.30;1.20;;;;;;;27.56;43.32;101828.78;5036520;28;20041;-31
2023/06/22 10:04:53;;;;;;;1.67;1.10;;;;;;;27.56;42.77;101831.50;5036470;28;20057;-32
2023/06/22 10:07:20;;;;;;;1.40;1.30;;;;;;;27.57;42.99;101825.00;5033103;28;20065;-32
2023/06/22 10:09:46;;;;;;;1.02;0.90;;;;;;;27.57;42.61;101816.84;5031445;28;20068;-31
2023/06/22 10:12:13;;;;;;;1.25;1.13;;;;;;;27.57;42.43;101825.00;5036820;28;20053;-31
2023/06/22 10:14:40;;;;;;;1.35;1.25;;;;;;;27.58;42.87;101820.41;5043912;28;20114;-32
2023/06/22 10:17:07;;;;;;;1.63;1.40;;;;;;;27.58;43.01;101821.28;5043612;28;20045;-31
2023/06/22 10:19:36;;;;;;;1.27;1.05;;;;;;;27.60;42.92;101821.06;5042226;28;20061;-31
2023/06/22 10:22:05;;;;;;;1.88;1.42;;;;;;;27.60;42.68;101826.53;5042491;28;20051;-31
2023/06/22 10:24:31;;;;;;;1.27;1.17;;;;;;;27.60;42.60;101826.53;5043356;28;20045;-32
2023/06/22 10:26:58;;;;;;;1.10;1.00;;;;;;;27.60;42.91;101830.09;5046250;28;20481;-32
2023/06/22 10:29:24;;;;;;;2.03;1.35;;;;;;;27.60;42.78;101830.09;5040693;28;20077;-31
2023/06/22 10:31:51;;;;;;;2.65;1.38;;;;;;;27.61;42.73;101823.59;5044653;28;20057;-31
2023/06/22 10:34:17;;;;;;;1.58;1.25;;;;;;;27.61;42.60;101828.19;5043674;28;20339;-31
2023/06/22 10:36:48;;;;;;;0.98;0.88;;;;;;;27.61;42.67;101822.75;5042230;28;20053;-31
2023/06/22 10:39:15;;;;;;;1.65;1.30;;;;;;;27.62;42.55;101827.16;5039427;28;20456;-31
2023/06/22 10:41:41;;;;;;;1.00;0.90;;;;;;;27.62;43.07;101830.75;5043359;28;20349;-31
2023/06/22 10:44:08;;;;;;;2.05;1.05;;;;;;;27.62;42.49;101821.69;5042660;28;20091;-31
2023/06/22 10:46:35;;;;;;;1.67;1.48;;;;;;;27.63;42.98;101835.16;5040976;28;20053;-31
2023/06/22 10:49:01;;;;;;;3.17;1.60;;;;;;;27.62;42.54;101833.47;5038791;28;20495;-31
2023/06/22 10:51:28;;;;;;;1.40;1.15;;;;;;;27.62;42.61;101832.59;5038573;28;20053;-32
2023/06/22 10:53:55;;;;;;;1.10;1.00;;;;;;;27.63;43.06;101831.59;5042235;28;20075;-31
2023/06/22 10:56:21;;;;;;;1.52;1.10;;;;;;;27.62;43.05;101833.47;5029407;28;20115;-31
2023/06/22 10:58:48;;;;;;;1.85;1.55;;;;;;;27.64;42.87;101836.81;5030067;28;20376;-31
2023/06/22 11:01:14;;;;;;;2.90;1.73;;;;;;;27.64;42.48;101836.00;5041780;28;20441;-31
2023/06/22 11:04:01;;;;;;;2.08;1.50;;;;;;;27.64;42.95;101836.00;5035034;28;20049;-32
2023/06/22 11:06:28;;;;;;;4.07;1.70;;;;;;;27.64;42.66;101836.81;5035621;28;20394;-31
2023/06/22 11:08:54;;;;;;;3.83;1.70;;;;;;;27.64;42.99;101825.94;5035839;28;20091;-33
2023/06/22 11:11:32;;;;;;;1.77;1.30;;;;;;;27.65;42.64;101833.06;5035124;28;20093;-31
2023/06/22 11:13:59;;;;;;;1.60;1.17;;;;;;;27.65;42.18;101829.50;5036031;28;21002;-31
2023/06/22 11:16:25;;;;;;;1.48;1.38;;;;;;;27.65;42.99;101834.94;5039324;28;20381;-31
2023/06/22 11:18:52;;;;;;;1.27;1.10;;;;;;;27.66;43.04;101833.91;5034973;28;20057;-31
2023/06/22 11:21:18;;;;;;;1.75;1.13;;;;;;;27.66;42.42;101829.31;5040587;28;20126;-31
2023/06/22 11:23:45;;;;;;;1.92;1.10;;;;;;;27.66;43.00;101836.63;5036312;28;20057;-31
2023/06/22 11:26:12;;;;;;;1.70;1.20;;;;;;;27.66;43.12;101839.34;5036944;28;20060;-32